createdAt,value
2018-03-21T00:02:14.000Z,31.48
2018-03-21T00:04:41.479Z,25.27
2018-03-21T00:07:09.004Z,27.58
2018-03-21T00:09:37.767Z,25.40
2018-03-21T00:12:05.248Z,26.45
2018-03-21T00:14:33.639Z,47.03
2018-03-21T00:17:01.140Z,25.20
2018-03-21T00:19:28.654Z,22.67
2018-03-21T00:21:56.174Z,29.87
2018-03-21T00:24:23.681Z,26.45
2018-03-21T00:26:51.148Z,22.95
2018-03-21T00:29:18.645Z,20.50
2018-03-21T00:31:46.149Z,22.80
2018-03-21T00:34:13.712Z,20.05
2018-03-21T00:36:41.383Z,27.77
2018-03-21T00:39:08.832Z,28.92
2018-03-21T00:41:36.307Z,33.00
2018-03-21T00:44:03.808Z,26.02
2018-03-21T00:46:31.515Z,27.23
2018-03-21T00:48:59.010Z,20.67
2018-03-21T00:51:26.500Z,27.10
2018-03-21T00:53:53.966Z,21.50
2018-03-21T00:56:21.433Z,24.83
2018-03-21T00:58:49.719Z,22.60
2018-03-21T01:01:18.643Z,23.15
2018-03-21T01:03:46.128Z,24.08
2018-03-21T01:06:13.608Z,18.48
2018-03-21T01:08:41.061Z,23.52
2018-03-21T01:11:08.528Z,22.98
2018-03-21T01:13:35.983Z,23.23
2018-03-21T01:16:03.464Z,19.87
2018-03-21T01:18:30.935Z,20.30
2018-03-21T01:20:58.422Z,25.20
2018-03-21T01:23:25.894Z,27.23
2018-03-21T01:25:53.360Z,18.77
2018-03-21T01:28:20.975Z,23.15
2018-03-21T01:30:49.516Z,19.48
2018-03-21T01:33:16.979Z,19.70
2018-03-21T01:35:44.459Z,17.48
2018-03-21T01:38:11.946Z,21.00
2018-03-21T01:40:39.484Z,21.77
2018-03-21T01:43:06.990Z,19.87
2018-03-21T01:45:34.456Z,18.15
2018-03-21T01:48:02.008Z,16.23
2018-03-21T01:50:29.491Z,19.10
2018-03-21T01:53:08.709Z,17.37
2018-03-21T01:55:36.219Z,19.50
2018-03-21T01:58:03.699Z,19.00
2018-03-21T02:00:31.164Z,18.60
2018-03-21T02:02:58.626Z,18.23
2018-03-21T02:05:26.139Z,17.35
2018-03-21T02:07:53.623Z,17.05
2018-03-21T02:10:21.227Z,21.10
2018-03-21T02:12:48.691Z,21.55
2018-03-21T02:15:16.393Z,20.27
2018-03-21T02:17:43.883Z,24.55
2018-03-21T02:20:11.353Z,20.60
2018-03-21T02:22:38.836Z,18.67
2018-03-21T02:25:06.319Z,20.55
2018-03-21T02:27:33.798Z,26.05
2018-03-21T02:30:01.327Z,19.60
2018-03-21T02:32:29.097Z,22.25
2018-03-21T02:34:56.585Z,21.10
2018-03-21T02:37:24.045Z,22.92
2018-03-21T02:39:51.576Z,19.80
2018-03-21T02:42:19.053Z,18.87
2018-03-21T02:44:46.519Z,26.87
2018-03-21T02:47:14.563Z,19.40
2018-03-21T02:49:42.499Z,19.65
2018-03-21T02:52:09.976Z,24.67
2018-03-21T02:54:37.439Z,20.42
2018-03-21T02:57:04.905Z,25.30
2018-03-21T02:59:32.771Z,21.75
2018-03-21T03:02:00.232Z,35.00
2018-03-21T03:04:27.690Z,18.00
2018-03-21T03:06:55.156Z,22.90
2018-03-21T03:09:22.612Z,22.05
2018-03-21T03:11:50.113Z,41.28
2018-03-21T03:14:17.581Z,20.10
2018-03-21T03:16:45.043Z,23.77
2018-03-21T03:19:13.544Z,19.87
2018-03-21T03:21:41.000Z,19.67
2018-03-21T03:24:08.515Z,23.12
2018-03-21T03:26:36.155Z,25.33
2018-03-21T03:29:03.629Z,22.73
2018-03-21T03:31:31.115Z,22.37
2018-03-21T03:33:58.572Z,22.83
2018-03-21T03:36:26.413Z,21.40
2018-03-21T03:38:53.963Z,20.45
2018-03-21T03:41:21.431Z,19.42
2018-03-21T03:43:48.924Z,28.23
2018-03-21T03:46:16.499Z,26.10
2018-03-21T03:48:43.967Z,24.20
2018-03-21T03:51:11.434Z,21.70
2018-03-21T03:53:38.895Z,26.85
2018-03-21T03:56:06.360Z,24.02
2018-03-21T03:58:33.839Z,33.78
2018-03-21T04:01:01.298Z,25.08
2018-03-21T04:03:28.747Z,23.55
2018-03-21T04:05:56.219Z,27.05
2018-03-21T04:08:23.669Z,31.37
2018-03-21T04:10:51.180Z,34.35
2018-03-21T04:13:18.646Z,25.88
2018-03-21T04:15:46.112Z,30.77
2018-03-21T04:18:13.591Z,27.87
2018-03-21T04:20:41.059Z,31.92
2018-03-21T04:23:08.519Z,27.08
2018-03-21T04:25:37.130Z,26.17
2018-03-21T04:28:04.598Z,28.05
2018-03-21T04:30:32.067Z,29.35
2018-03-21T04:32:59.535Z,30.40
2018-03-21T04:35:27.007Z,27.35
2018-03-21T04:37:54.497Z,31.10
2018-03-21T04:40:22.144Z,29.90
2018-03-21T04:42:49.714Z,29.37
2018-03-21T04:45:17.315Z,29.05
2018-03-21T04:47:44.797Z,30.37
2018-03-21T04:50:12.323Z,28.70
2018-03-21T04:52:39.943Z,29.42
2018-03-21T04:55:07.402Z,33.08
2018-03-21T04:57:34.902Z,32.95
2018-03-21T05:00:02.428Z,34.72
2018-03-21T05:02:30.088Z,32.35
2018-03-21T05:04:57.579Z,32.58
2018-03-21T05:07:25.061Z,29.85
2018-03-21T05:09:52.543Z,29.58
2018-03-21T05:12:20.048Z,32.42
2018-03-21T05:14:47.523Z,29.63
2018-03-21T05:17:15.012Z,34.03
2018-03-21T05:19:42.492Z,32.60
2018-03-21T05:22:10.264Z,36.35
2018-03-21T05:24:37.759Z,30.92
2018-03-21T05:27:05.258Z,31.48
2018-03-21T05:29:32.743Z,37.47
2018-03-21T05:32:00.196Z,38.97
2018-03-21T05:34:27.950Z,34.15
2018-03-21T05:36:55.467Z,35.67
2018-03-21T05:39:22.950Z,35.97
2018-03-21T05:41:50.427Z,33.80
2018-03-21T05:44:17.895Z,36.25
2018-03-21T05:46:45.376Z,36.90
2018-03-21T05:49:13.391Z,36.45
2018-03-21T05:51:41.775Z,35.08
2018-03-21T05:54:09.234Z,38.22
2018-03-21T05:56:36.737Z,42.45
2018-03-21T05:59:04.211Z,45.63
2018-03-21T06:01:31.672Z,43.28
2018-03-21T06:03:59.167Z,41.05
2018-03-21T06:06:26.764Z,45.35
2018-03-21T06:08:54.249Z,48.08
2018-03-21T06:11:21.742Z,46.63
2018-03-21T06:13:49.207Z,39.03
2018-03-21T06:16:16.725Z,39.42
2018-03-21T06:18:44.526Z,42.72
2018-03-21T06:21:12.040Z,49.42
2018-03-21T06:23:39.503Z,41.25
2018-03-21T06:26:06.985Z,43.70
2018-03-21T06:28:34.443Z,46.65
2018-03-21T06:31:01.924Z,46.60
2018-03-21T06:33:29.444Z,43.22
2018-03-21T06:35:56.916Z,54.70
2018-03-21T06:38:24.447Z,38.20
2018-03-21T06:40:52.016Z,43.85
2018-03-21T06:43:19.589Z,43.05
2018-03-21T06:45:47.079Z,45.97
2018-03-21T06:48:14.542Z,46.90
2018-03-21T06:50:42.007Z,42.05
2018-03-21T06:53:09.475Z,41.65
2018-03-21T06:55:36.961Z,40.85
2018-03-21T06:58:04.442Z,42.47
2018-03-21T07:00:31.953Z,47.45
2018-03-21T07:02:59.481Z,43.05
2018-03-21T07:05:27.023Z,42.60
2018-03-21T07:07:54.543Z,36.65
2018-03-21T07:10:22.028Z,37.97
2018-03-21T07:12:49.533Z,35.45
2018-03-21T07:15:28.784Z,43.47
2018-03-21T07:17:56.340Z,44.58
2018-03-21T07:20:23.813Z,37.67
2018-03-21T07:22:51.276Z,43.00
2018-03-21T07:25:18.765Z,43.78
2018-03-21T07:27:46.245Z,40.40
2018-03-21T07:30:13.738Z,41.37
2018-03-21T07:32:41.251Z,43.03
2018-03-21T07:35:08.730Z,44.50
2018-03-21T07:37:36.246Z,45.95
2018-03-21T07:40:03.763Z,47.67
2018-03-21T07:42:31.244Z,52.92
2018-03-21T07:44:58.724Z,43.85
2018-03-21T07:47:26.244Z,46.83
2018-03-21T07:49:53.765Z,43.67
2018-03-21T07:52:21.287Z,46.15
2018-03-21T07:54:48.783Z,50.30
2018-03-21T07:57:16.404Z,46.35
2018-03-21T07:59:43.900Z,58.33
2018-03-21T08:02:11.395Z,45.30
2018-03-21T08:04:38.886Z,49.83
2018-03-21T08:07:06.368Z,50.47
2018-03-21T08:09:33.911Z,46.67
2018-03-21T08:12:01.392Z,45.33
2018-03-21T08:14:29.071Z,47.53
2018-03-21T08:16:56.479Z,47.60
2018-03-21T08:19:24.021Z,48.65
2018-03-21T08:21:51.534Z,42.83
2018-03-21T08:24:19.010Z,43.63
2018-03-21T08:26:46.519Z,41.00
2018-03-21T08:29:14.048Z,43.00
2018-03-21T08:31:41.538Z,41.25
2018-03-21T08:34:09.028Z,44.25
2018-03-21T08:36:36.502Z,45.63
2018-03-21T08:39:04.067Z,44.40
2018-03-21T08:41:31.683Z,44.33
2018-03-21T08:43:59.167Z,38.08
2018-03-21T08:46:26.656Z,40.85
2018-03-21T08:48:54.151Z,44.03
2018-03-21T08:51:21.674Z,39.90
2018-03-21T08:53:49.136Z,42.10
2018-03-21T08:56:16.861Z,41.47
2018-03-21T08:58:44.359Z,40.40
2018-03-21T09:01:11.838Z,39.80
2018-03-21T09:03:39.332Z,40.60
2018-03-21T09:06:06.808Z,32.38
2018-03-21T09:08:34.460Z,37.10
2018-03-21T09:11:01.952Z,44.10
2018-03-21T09:13:29.407Z,45.07
2018-03-21T09:15:56.882Z,37.50
2018-03-21T09:18:24.463Z,35.60
2018-03-21T09:20:51.928Z,51.00
2018-03-21T09:23:19.414Z,41.10
2018-03-21T09:25:46.911Z,40.40
2018-03-21T09:28:14.546Z,40.20
2018-03-21T09:30:42.044Z,35.47
2018-03-21T09:33:09.537Z,39.57
2018-03-21T09:35:37.027Z,45.40
2018-03-21T09:38:04.520Z,41.93
2018-03-21T09:40:32.378Z,48.83
2018-03-21T09:42:59.871Z,42.17
2018-03-21T09:45:27.431Z,40.70
2018-03-21T09:47:54.924Z,42.33
2018-03-21T09:50:22.392Z,42.70
2018-03-21T09:52:49.846Z,31.60
2018-03-21T09:55:17.360Z,33.07
2018-03-21T09:57:44.793Z,34.88
2018-03-21T10:00:12.276Z,34.50
2018-03-21T10:02:40.278Z,31.90
2018-03-21T10:05:07.757Z,28.77
2018-03-21T10:07:35.804Z,33.30
2018-03-21T10:10:03.310Z,34.43
2018-03-21T10:12:30.779Z,30.60
2018-03-21T10:14:58.295Z,31.43
2018-03-21T10:17:25.781Z,33.17
2018-03-21T10:19:53.271Z,33.10
2018-03-21T10:22:20.760Z,31.77
2018-03-21T10:24:48.237Z,27.40
2018-03-21T10:27:16.587Z,31.80
2018-03-21T10:29:44.093Z,31.60
2018-03-21T10:32:11.583Z,37.60
2018-03-21T10:34:39.070Z,32.03
2018-03-21T10:37:06.604Z,33.10
2018-03-21T10:39:34.113Z,30.10
2018-03-21T10:42:01.591Z,29.37
2018-03-21T10:44:29.080Z,30.10
2018-03-21T10:46:56.561Z,32.10
2018-03-21T10:49:24.066Z,33.10
2018-03-21T10:51:51.540Z,33.57
2018-03-21T10:54:19.010Z,26.90
2018-03-21T10:56:46.533Z,25.40
2018-03-21T10:59:14.028Z,20.93
2018-03-21T11:01:41.544Z,22.73
2018-03-21T11:04:09.036Z,21.37
2018-03-21T11:06:36.528Z,22.90
2018-03-21T11:09:04.867Z,22.40
2018-03-21T11:11:32.482Z,26.87
2018-03-21T11:14:00.480Z,20.73
2018-03-21T11:16:27.954Z,19.10
2018-03-21T11:18:55.450Z,18.80
2018-03-21T11:21:23.004Z,20.27
2018-03-21T11:23:50.465Z,14.23
2018-03-21T11:26:18.482Z,14.77
2018-03-21T11:28:45.971Z,15.20
2018-03-21T11:31:13.482Z,14.03
2018-03-21T11:33:40.959Z,12.63
2018-03-21T11:36:08.467Z,14.57
2018-03-21T11:38:35.926Z,9.90
2018-03-21T11:41:04.258Z,9.40
2018-03-21T11:43:31.732Z,7.93
2018-03-21T11:45:59.730Z,9.83
2018-03-21T11:48:28.468Z,9.00
2018-03-21T11:50:55.961Z,11.00
2018-03-21T11:53:23.474Z,10.50
2018-03-21T11:55:50.957Z,12.17
2018-03-21T11:58:18.583Z,10.20
2018-03-21T12:00:46.060Z,18.30
2018-03-21T12:03:13.633Z,9.50
2018-03-21T12:05:41.182Z,16.53
2018-03-21T12:08:08.637Z,12.43
2018-03-21T12:10:36.088Z,13.30
2018-03-21T12:13:03.613Z,14.60
2018-03-21T12:15:31.072Z,10.57
2018-03-21T12:17:58.794Z,14.97
2018-03-21T12:20:26.289Z,18.80
2018-03-21T12:22:53.751Z,15.23
2018-03-21T12:25:21.270Z,13.50
2018-03-21T12:27:48.760Z,12.97
2018-03-21T12:30:16.249Z,14.93
2018-03-21T12:32:43.810Z,12.23
2018-03-21T12:35:11.282Z,14.80
2018-03-21T12:37:38.778Z,18.73
2018-03-21T12:40:06.270Z,14.13
2018-03-21T12:42:33.760Z,13.83
2018-03-21T12:45:01.384Z,13.13
2018-03-21T12:47:28.992Z,16.03
2018-03-21T12:49:57.040Z,15.40
2018-03-21T12:52:24.832Z,11.70
2018-03-21T12:54:52.334Z,16.80
2018-03-21T12:57:19.839Z,13.73
2018-03-21T12:59:47.318Z,13.90
2018-03-21T13:02:14.812Z,17.77
2018-03-21T13:04:42.263Z,11.80
2018-03-21T13:07:09.785Z,8.10
2018-03-21T13:09:37.258Z,7.67
2018-03-21T13:12:04.723Z,7.70
2018-03-21T13:14:33.447Z,5.67
2018-03-21T13:17:00.920Z,7.70
2018-03-21T13:19:29.700Z,13.17
2018-03-21T13:21:57.195Z,18.03
2018-03-21T13:24:24.946Z,15.70
2018-03-21T13:26:52.432Z,15.60
2018-03-21T13:29:20.527Z,11.83
2018-03-21T13:31:48.049Z,16.53
2018-03-21T13:34:16.590Z,10.70
2018-03-21T13:36:44.316Z,7.80
2018-03-21T13:39:11.787Z,6.93
2018-03-21T13:41:39.240Z,8.33
2018-03-21T13:44:06.737Z,5.60
2018-03-21T13:46:34.259Z,6.67
2018-03-21T13:49:02.298Z,6.03
2018-03-21T13:51:29.759Z,5.80
2018-03-21T13:53:57.221Z,6.93
2018-03-21T13:56:24.808Z,6.40
2018-03-21T13:58:52.266Z,5.90
2018-03-21T14:01:19.715Z,7.63
2018-03-21T14:03:47.173Z,7.87
2018-03-21T14:06:14.638Z,7.33
2018-03-21T14:08:42.092Z,8.83
2018-03-21T14:11:09.613Z,8.30
2018-03-21T14:13:37.055Z,7.00
2018-03-21T14:16:04.570Z,8.20
2018-03-21T14:18:32.375Z,5.90
2018-03-21T14:20:59.825Z,6.87
2018-03-21T14:23:27.288Z,7.00
2018-03-21T14:25:54.740Z,17.83
2018-03-21T14:28:22.198Z,6.27
2018-03-21T14:30:49.735Z,7.30
2018-03-21T14:33:17.236Z,5.60
2018-03-21T14:35:44.696Z,9.37
2018-03-21T14:38:12.165Z,4.90
2018-03-21T14:40:39.618Z,6.23
2018-03-21T14:43:07.080Z,20.53
2018-03-21T14:45:34.608Z,5.17
2018-03-21T14:48:02.094Z,5.50
2018-03-21T14:50:29.763Z,7.47
2018-03-21T14:52:57.224Z,7.77
2018-03-21T14:55:24.701Z,7.50
2018-03-21T14:57:52.178Z,9.37
2018-03-21T15:00:19.659Z,6.17
2018-03-21T15:02:47.129Z,7.17
2018-03-21T15:05:14.652Z,5.60
2018-03-21T15:07:42.111Z,6.00
2018-03-21T15:10:09.651Z,5.33
2018-03-21T15:12:37.095Z,5.43
2018-03-21T15:15:04.568Z,5.93
2018-03-21T15:17:32.040Z,5.80
2018-03-21T15:19:59.512Z,8.10
2018-03-21T15:22:27.013Z,5.63
2018-03-21T15:24:54.479Z,5.33
2018-03-21T15:27:22.075Z,12.53
2018-03-21T15:29:49.593Z,4.53
2018-03-21T15:32:17.099Z,4.67
2018-03-21T15:34:44.602Z,4.57
2018-03-21T15:37:12.123Z,5.53
2018-03-21T15:39:39.613Z,6.20
2018-03-21T15:42:07.097Z,5.33
2018-03-21T15:44:34.579Z,4.83
2018-03-21T15:47:02.049Z,4.77
2018-03-21T15:49:29.509Z,7.23
2018-03-21T15:51:57.868Z,4.80
2018-03-21T15:54:27.014Z,7.27
2018-03-21T15:56:54.873Z,4.17
2018-03-21T15:59:22.343Z,5.53
2018-03-21T16:01:49.800Z,5.13
2018-03-21T16:04:17.287Z,6.40
2018-03-21T16:06:44.742Z,5.07
2018-03-21T16:09:12.225Z,8.33
2018-03-21T16:11:39.685Z,5.70
2018-03-21T16:14:07.148Z,5.53
2018-03-21T16:16:34.611Z,5.87
2018-03-21T16:19:02.053Z,7.23
2018-03-21T16:21:29.529Z,5.00
2018-03-21T16:23:57.008Z,10.77
2018-03-21T16:26:24.456Z,9.50
2018-03-21T16:28:51.937Z,8.40
2018-03-21T16:31:19.441Z,8.23
2018-03-21T16:33:46.914Z,7.33
2018-03-21T16:36:14.398Z,9.00
2018-03-21T16:38:41.896Z,6.10
2018-03-21T16:41:12.364Z,5.63
2018-03-21T16:43:39.917Z,7.87
2018-03-21T16:46:07.405Z,8.80
2018-03-21T16:48:34.849Z,7.07
2018-03-21T16:51:02.329Z,6.27
2018-03-21T16:53:29.790Z,5.20
2018-03-21T16:55:57.245Z,4.80
2018-03-21T16:58:24.861Z,6.00
2018-03-21T17:00:52.323Z,6.07
2018-03-21T17:03:19.841Z,5.10
2018-03-21T17:05:47.437Z,5.13
2018-03-21T17:08:14.941Z,14.57
2018-03-21T17:10:43.485Z,11.07
2018-03-21T17:13:11.023Z,9.07
2018-03-21T17:15:38.488Z,7.53
2018-03-21T17:18:06.084Z,6.57
2018-03-21T17:20:33.560Z,9.20
2018-03-21T17:23:01.058Z,5.20
2018-03-21T17:25:28.520Z,7.67
2018-03-21T17:27:56.029Z,8.30
2018-03-21T17:30:23.527Z,6.50
2018-03-21T17:32:51.060Z,8.80
2018-03-21T17:35:18.524Z,6.37
2018-03-21T17:37:46.116Z,10.67
2018-03-21T17:40:13.674Z,7.97
2018-03-21T17:42:41.139Z,6.03
2018-03-21T17:45:08.612Z,5.67
2018-03-21T17:47:36.160Z,7.37
2018-03-21T17:50:03.641Z,8.50
2018-03-21T17:52:31.137Z,10.17
2018-03-21T17:54:58.622Z,5.30
2018-03-21T17:57:26.085Z,7.03
2018-03-21T17:59:53.563Z,7.53
2018-03-21T18:02:21.016Z,8.70
2018-03-21T18:04:49.373Z,9.53
2018-03-21T18:07:16.992Z,6.07
2018-03-21T18:09:44.606Z,5.53
2018-03-21T18:12:12.112Z,6.17
2018-03-21T18:14:39.671Z,6.33
2018-03-21T18:17:07.163Z,6.43
2018-03-21T18:19:34.634Z,9.33
2018-03-21T18:22:02.111Z,5.63
2018-03-21T18:24:29.665Z,6.97
2018-03-21T18:26:57.171Z,7.43
2018-03-21T18:29:24.657Z,8.27
2018-03-21T18:31:52.131Z,7.00
2018-03-21T18:34:19.609Z,7.03
2018-03-21T18:36:47.089Z,7.13
2018-03-21T18:39:14.914Z,7.87
2018-03-21T18:41:42.430Z,6.10
2018-03-21T18:44:09.923Z,9.68
2018-03-21T18:46:37.459Z,8.30
2018-03-21T18:49:04.938Z,7.30
2018-03-21T18:51:32.431Z,5.87
2018-03-21T18:53:59.887Z,9.27
2018-03-21T18:56:27.381Z,5.50
2018-03-21T18:58:54.954Z,5.47
2018-03-21T19:01:22.452Z,5.10
2018-03-21T19:03:51.148Z,5.80
2018-03-21T19:06:18.640Z,9.40
2018-03-21T19:08:46.205Z,6.05
2018-03-21T19:11:13.688Z,9.35
2018-03-21T19:13:41.401Z,5.43
2018-03-21T19:16:08.896Z,8.55
2018-03-21T19:18:36.368Z,6.80
2018-03-21T19:21:04.148Z,7.32
2018-03-21T19:23:31.629Z,12.10
2018-03-21T19:25:59.091Z,5.60
2018-03-21T19:28:26.797Z,6.87
2018-03-21T19:30:55.051Z,5.95
2018-03-21T19:33:22.553Z,5.82
2018-03-21T19:35:50.106Z,10.20
2018-03-21T19:38:17.602Z,6.97
2018-03-21T19:40:45.086Z,6.57
2018-03-21T19:43:12.632Z,6.47
2018-03-21T19:45:40.100Z,5.80
2018-03-21T19:48:07.609Z,7.03
2018-03-21T19:50:35.342Z,10.50
2018-03-21T19:53:03.194Z,6.25
2018-03-21T19:55:30.817Z,6.67
2018-03-21T19:57:58.392Z,12.17
2018-03-21T20:00:25.846Z,9.00
2018-03-21T20:02:53.320Z,8.05
2018-03-21T20:05:20.845Z,6.10
2018-03-21T20:07:48.604Z,8.30
2018-03-21T20:10:16.093Z,6.57
2018-03-21T20:12:43.660Z,6.12
2018-03-21T20:15:12.052Z,5.37
2018-03-21T20:17:39.680Z,6.80
2018-03-21T20:20:07.306Z,6.15
2018-03-21T20:22:34.846Z,6.78
2018-03-21T20:25:02.372Z,6.32
2018-03-21T20:27:29.888Z,5.85
2018-03-21T20:29:57.372Z,7.57
2018-03-21T20:32:24.851Z,6.10
2018-03-21T20:34:53.306Z,5.53
2018-03-21T20:37:20.860Z,5.25
2018-03-21T20:39:48.389Z,8.38
2018-03-21T20:42:15.998Z,7.78
2018-03-21T20:44:43.529Z,8.45
2018-03-21T20:47:11.033Z,9.80
2018-03-21T20:49:38.604Z,11.35
2018-03-21T20:52:06.150Z,12.32
2018-03-21T20:54:33.649Z,8.27
2018-03-21T20:57:01.118Z,6.87
2018-03-21T20:59:28.738Z,7.22
2018-03-21T21:01:56.313Z,8.05
2018-03-21T21:04:23.787Z,8.93
2018-03-21T21:06:51.282Z,7.70
2018-03-21T21:09:18.856Z,9.35
2018-03-21T21:14:20.232Z,8.43
2018-03-21T21:16:47.721Z,8.98
2018-03-21T21:19:15.180Z,5.87
2018-03-21T21:21:42.671Z,8.85
2018-03-21T21:24:10.141Z,12.32
2018-03-21T21:26:37.619Z,11.80
2018-03-21T21:29:05.150Z,9.93
2018-03-21T21:31:32.653Z,10.40
2018-03-21T21:34:00.161Z,9.60
2018-03-21T21:36:27.636Z,9.82
2018-03-21T21:38:55.130Z,31.87
2018-03-21T21:41:23.791Z,30.20
2018-03-21T21:43:51.324Z,19.08
2018-03-21T21:46:18.828Z,17.62
2018-03-21T21:48:46.342Z,16.10
2018-03-21T21:51:13.947Z,12.10
2018-03-21T21:53:41.436Z,13.68
2018-03-21T21:56:08.923Z,12.57
2018-03-21T21:58:36.400Z,12.25
2018-03-21T22:01:03.927Z,8.35
2018-03-21T22:03:31.422Z,13.32
2018-03-21T22:05:59.320Z,9.57
2018-03-21T22:08:26.812Z,21.23
2018-03-21T22:10:54.353Z,19.17
2018-03-21T22:13:21.840Z,38.63
2018-03-21T22:15:49.312Z,17.70
2018-03-21T22:18:16.807Z,16.30
2018-03-21T22:20:44.333Z,11.45
2018-03-21T22:23:11.824Z,11.57
2018-03-21T22:25:39.325Z,11.27
2018-03-21T22:28:06.796Z,8.43
2018-03-21T22:30:34.276Z,10.90
2018-03-21T22:33:01.913Z,11.32
2018-03-21T22:35:29.386Z,12.68
2018-03-21T22:37:56.861Z,7.40
2018-03-21T22:40:24.356Z,11.75
2018-03-21T22:42:51.822Z,13.55
2018-03-21T22:45:19.310Z,10.70
2018-03-21T22:47:46.864Z,8.05
2018-03-21T22:50:14.363Z,16.42
2018-03-21T22:52:41.895Z,8.32
2018-03-21T22:55:09.393Z,11.32
2018-03-21T22:57:36.870Z,11.40
2018-03-21T23:00:05.922Z,7.68
2018-03-21T23:02:33.528Z,6.75
2018-03-21T23:05:01.249Z,10.90
2018-03-21T23:07:28.747Z,11.43
2018-03-21T23:09:56.504Z,10.38
2018-03-21T23:12:24.093Z,9.93
2018-03-21T23:14:51.591Z,10.43
2018-03-21T23:17:19.087Z,11.70
2018-03-21T23:19:46.544Z,10.98
2018-03-21T23:22:14.028Z,13.85
2018-03-21T23:24:41.496Z,11.05
2018-03-21T23:27:09.073Z,9.90
2018-03-21T23:29:36.540Z,12.50
2018-03-21T23:32:04.032Z,12.82
2018-03-21T23:34:31.535Z,8.85
2018-03-21T23:36:59.021Z,18.73
2018-03-21T23:39:26.516Z,8.35
2018-03-21T23:41:54.044Z,11.45
2018-03-21T23:44:21.578Z,10.35
2018-03-21T23:46:49.058Z,10.05
2018-03-21T23:49:16.576Z,9.45
2018-03-21T23:51:44.040Z,9.48
2018-03-21T23:54:11.517Z,7.68
2018-03-21T23:56:39.020Z,10.50
2018-03-21T23:59:06.505Z,10.88
